Time;durP1;ratioP1;P1;durP2;ratioP2;P2;SDS_P1;SDS_P2;PMS_P1;PMS_P2;Temp;Humidity;BMP_temperature;BMP_pressure;BME280_temperature;BME280_humidity;BME280_pressure;Samples;Min_cycle;Max_cycle;Signal;HPM_P1;HPM_P2
2023/12/19 00:01:20;;;;;;;339.80;60.80;;;;;;;11.80;95.35;101599.82;107037;1281;58291;-78
2023/12/19 00:03:46;;;;;;;364.60;64.90;;;;;;;11.76;96.56;101603.21;107116;1281;58534;-79
2023/12/19 00:06:11;;;;;;;457.10;64.10;;;;;;;11.77;97.89;101601.77;107117;1281;60853;-78
2023/12/19 00:08:37;;;;;;;474.40;67.60;;;;;;;11.83;98.68;101607.17;107193;1281;58190;-78
2023/12/19 00:11:02;;;;;;;303.20;55.20;;;;;;;11.96;96.95;101609.64;106811;1281;58608;-78
2023/12/19 00:13:28;;;;;;;296.20;54.70;;;;;;;11.90;96.49;101608.06;107103;1281;58210;-79
2023/12/19 00:15:53;;;;;;;302.80;51.30;;;;;;;11.93;96.10;101606.63;106887;1281;58334;-79
2023/12/19 00:18:19;;;;;;;298.50;49.50;;;;;;;11.80;97.32;101607.39;107138;1281;74831;-78
2023/12/19 00:20:44;;;;;;;279.40;49.70;;;;;;;11.64;99.52;101612.71;107160;1281;58353;-79
2023/12/19 00:23:10;;;;;;;310.30;50.00;;;;;;;11.75;98.60;101610.11;107041;1281;58330;-78
2023/12/19 00:25:35;;;;;;;271.30;45.80;;;;;;;11.73;99.83;101612.17;107162;1281;58341;-79
2023/12/19 00:28:01;;;;;;;291.70;47.00;;;;;;;11.98;97.27;101610.30;107197;1281;58215;-79
2023/12/19 00:30:26;;;;;;;249.90;45.80;;;;;;;11.88;96.13;101610.75;107124;1281;58145;-79
2023/12/19 00:32:52;;;;;;;255.70;44.60;;;;;;;11.58;97.89;101606.34;107114;1281;58286;-79
2023/12/19 00:35:17;;;;;;;295.80;46.60;;;;;;;11.94;95.96;101603.65;107128;1281;58136;-79
2023/12/19 00:37:43;;;;;;;288.50;45.50;;;;;;;11.79;96.54;101604.95;107129;1281;58302;-79
2023/12/19 00:40:11;;;;;;;276.00;44.90;;;;;;;11.61;97.95;101604.84;107235;1281;58222;-80
2023/12/19 00:42:37;;;;;;;279.80;44.00;;;;;;;11.69;98.07;101609.14;107036;1281;73502;-79
2023/12/19 00:45:03;;;;;;;286.50;45.30;;;;;;;11.80;97.22;101612.73;107174;1282;58589;-79
2023/12/19 00:47:29;;;;;;;271.90;44.20;;;;;;;11.86;96.76;101616.54;107140;1281;58216;-78
2023/12/19 00:49:54;;;;;;;286.90;45.50;;;;;;;11.88;97.05;101619.66;107171;1282;58381;-78
2023/12/19 00:52:19;;;;;;;303.00;47.80;;;;;;;12.02;95.23;101623.20;107140;1281;58444;-79
2023/12/19 00:54:45;;;;;;;339.90;47.30;;;;;;;12.04;94.96;101619.55;107168;1282;58675;-79
2023/12/19 00:57:11;;;;;;;320.90;45.60;;;;;;;12.02;95.05;101622.89;107051;1281;58282;-79
2023/12/19 00:59:36;;;;;;;296.60;45.00;;;;;;;12.04;95.06;101626.70;107171;1281;58273;-78
2023/12/19 01:02:02;;;;;;;321.50;45.10;;;;;;;12.16;94.36;101631.45;107162;1281;58337;-79
2023/12/19 01:04:27;;;;;;;309.00;46.20;;;;;;;12.17;94.25;101632.80;107123;1282;58248;-79
2023/12/19 01:06:52;;;;;;;340.00;47.40;;;;;;;12.15;93.58;101637.48;107150;1281;58270;-79
2023/12/19 01:09:18;;;;;;;267.40;44.60;;;;;;;12.26;92.49;101637.65;106875;1285;58289;-79
2023/12/19 01:11:43;;;;;;;354.20;47.60;;;;;;;12.32;91.81;101639.65;107156;1281;58339;-79
2023/12/19 01:14:09;;;;;;;313.20;45.70;;;;;;;12.30;91.83;101639.14;106873;1281;58470;-79
2023/12/19 01:16:35;;;;;;;328.90;47.50;;;;;;;12.28;91.81;101636.88;107190;1281;58564;-79
2023/12/19 01:19:02;;;;;;;297.90;45.30;;;;;;;12.20;92.53;101638.20;107171;1282;58281;-79
2023/12/19 01:21:27;;;;;;;285.50;45.40;;;;;;;12.15;92.32;101643.42;107146;1282;73907;-79
2023/12/19 01:23:53;;;;;;;305.50;45.40;;;;;;;12.14;92.58;101645.62;107138;1281;58375;-79
2023/12/19 01:26:19;;;;;;;328.30;46.40;;;;;;;12.03;93.05;101644.27;107139;1281;58318;-79
2023/12/19 01:28:44;;;;;;;311.90;48.00;;;;;;;11.87;94.69;101644.54;107157;1281;58240;-79
2023/12/19 01:31:09;;;;;;;327.10;46.80;;;;;;;12.16;93.48;101650.29;107220;1282;58193;-79
2023/12/19 01:33:35;;;;;;;326.20;48.30;;;;;;;12.01;93.58;101648.10;106853;1282;70701;-79
2023/12/19 01:36:02;;;;;;;309.30;47.70;;;;;;;11.56;96.74;101643.40;107165;1282;58251;-78
2023/12/19 01:38:27;;;;;;;304.80;46.30;;;;;;;11.71;97.24;101644.20;107155;1282;58703;-79
2023/12/19 01:40:53;;;;;;;282.20;44.60;;;;;;;11.95;95.56;101644.33;107167;1282;58238;-79
2023/12/19 01:43:19;;;;;;;308.50;48.30;;;;;;;12.06;93.93;101646.48;107159;1282;58214;-79
2023/12/19 01:45:45;;;;;;;344.20;46.90;;;;;;;12.08;93.31;101636.39;106950;1286;58621;-78
2023/12/19 01:48:13;;;;;;;357.10;48.80;;;;;;;12.27;92.00;101634.92;106964;1285;58197;-78
2023/12/19 01:50:39;;;;;;;306.10;47.90;;;;;;;12.28;91.58;101637.91;106986;1283;58727;-79
2023/12/19 01:53:05;;;;;;;290.50;47.90;;;;;;;12.08;92.62;101635.12;106664;1287;58674;-79
2023/12/19 01:55:30;;;;;;;292.30;47.60;;;;;;;12.12;93.51;101630.67;106648;1286;58344;-79
2023/12/19 01:57:56;;;;;;;251.20;45.20;;;;;;;12.12;92.60;101631.05;106705;1286;58333;-78
2023/12/19 02:00:22;;;;;;;264.70;46.20;;;;;;;12.01;93.15;101629.06;106685;1286;60903;-78
2023/12/19 02:02:52;;;;;;;250.60;45.50;;;;;;;11.99;93.87;101632.05;106665;1286;58948;-78
2023/12/19 02:05:18;;;;;;;266.20;45.80;;;;;;;11.96;94.35;101630.11;106663;1288;73290;-78
2023/12/19 02:07:43;;;;;;;300.00;47.00;;;;;;;11.92;94.36;101629.27;106644;1286;58508;-79
2023/12/19 02:10:10;;;;;;;260.80;42.60;;;;;;;11.87;96.35;101627.83;106507;1286;58533;-79
2023/12/19 02:12:37;;;;;;;258.00;45.00;;;;;;;12.00;95.00;101633.27;106710;1286;58275;-79
2023/12/19 02:15:02;;;;;;;274.90;45.70;;;;;;;12.24;93.01;101638.80;106640;1289;58541;-79
2023/12/19 02:17:28;;;;;;;267.70;46.40;;;;;;;12.38;91.69;101633.80;106738;1284;58302;-79
2023/12/19 02:19:53;;;;;;;316.70;45.00;;;;;;;12.33;91.48;101638.26;106736;1284;58307;-79
2023/12/19 02:22:20;;;;;;;246.70;45.70;;;;;;;12.20;93.15;101638.54;106770;1284;58256;-78
2023/12/19 02:24:45;;;;;;;275.00;46.80;;;;;;;12.25;93.48;101640.63;106995;1282;74582;-79
2023/12/19 02:27:11;;;;;;;274.80;45.70;;;;;;;12.34;93.01;101642.95;107053;1281;58260;-78
2023/12/19 02:29:37;;;;;;;278.30;46.70;;;;;;;12.28;91.82;101634.65;107136;1282;58393;-79
2023/12/19 02:32:03;;;;;;;274.00;47.50;;;;;;;12.26;91.43;101636.46;107019;1281;58611;-79
2023/12/19 02:34:29;;;;;;;298.10;46.80;;;;;;;12.18;92.31;101636.19;107171;1282;58333;-78
2023/12/19 02:36:55;;;;;;;339.90;48.90;;;;;;;12.18;93.18;101626.33;107019;1281;58284;-78
2023/12/19 02:39:21;;;;;;;246.30;42.60;;;;;;;12.31;92.94;101621.79;107098;1281;58653;-79
2023/12/19 02:41:47;;;;;;;292.60;46.00;;;;;;;12.33;93.19;101626.19;107124;1282;58260;-78
2023/12/19 02:44:12;;;;;;;307.40;47.20;;;;;;;12.25;93.08;101627.69;106811;1281;58266;-79
2023/12/19 02:46:38;;;;;;;269.10;46.40;;;;;;;12.30;92.42;101628.36;107138;1282;58344;-79
2023/12/19 02:49:06;;;;;;;262.60;45.10;;;;;;;12.28;91.58;101628.45;107128;1281;58473;-79
2023/12/19 02:51:32;;;;;;;296.90;46.00;;;;;;;12.22;91.62;101629.59;107131;1281;58254;-79
2023/12/19 02:53:58;;;;;;;267.80;45.50;;;;;;;12.29;92.25;101626.83;106756;1282;58355;-79
2023/12/19 02:56:24;;;;;;;270.10;44.40;;;;;;;12.28;91.45;101629.46;107106;1281;58238;-79
2023/12/19 02:58:50;;;;;;;258.60;45.20;;;;;;;12.16;91.88;101631.29;107093;1281;58543;-80
2023/12/19 03:01:16;;;;;;;271.10;44.50;;;;;;;12.17;91.61;101629.55;107050;1282;58308;-79
2023/12/19 03:03:43;;;;;;;271.80;44.10;;;;;;;12.21;91.25;101629.58;107081;1282;58628;-79
2023/12/19 03:06:09;;;;;;;282.50;45.30;;;;;;;12.24;90.96;101627.96;107122;1281;58186;-80
2023/12/19 03:08:35;;;;;;;280.60;45.80;;;;;;;12.27;91.02;101626.50;107104;1281;58238;-79
2023/12/19 03:11:01;;;;;;;261.10;44.80;;;;;;;12.30;90.83;101629.61;107112;1282;58184;-79
2023/12/19 03:13:27;;;;;;;260.10;44.80;;;;;;;12.16;91.16;101632.83;107008;1285;58323;-79
2023/12/19 03:15:53;;;;;;;281.40;45.90;;;;;;;11.95;93.77;101634.04;107139;1282;58270;-79
2023/12/19 03:18:23;;;;;;;243.70;41.60;;;;;;;12.09;92.44;101637.69;107110;1285;58557;-79
2023/12/19 03:20:51;;;;;;;285.70;45.70;;;;;;;11.96;93.77;101633.20;106749;1282;73516;-79
2023/12/19 03:23:20;;;;;;;276.30;45.80;;;;;;;11.91;94.00;101628.73;106813;1282;73849;-79
2023/12/19 03:25:46;;;;;;;251.20;43.50;;;;;;;11.63;96.10;101628.68;107058;1282;73484;-79
2023/12/19 03:28:12;;;;;;;284.40;44.50;;;;;;;11.63;96.64;101621.09;107111;1282;58333;-79
2023/12/19 03:30:38;;;;;;;253.90;43.30;;;;;;;11.75;96.06;101625.17;107199;1282;58227;-80
2023/12/19 03:33:03;;;;;;;311.10;45.50;;;;;;;11.83;95.18;101626.97;106818;1281;59174;-79
2023/12/19 03:35:29;;;;;;;289.50;45.10;;;;;;;11.72;95.89;101632.09;107103;1281;58550;-79
2023/12/19 03:37:54;;;;;;;287.60;45.10;;;;;;;11.80;95.81;101626.02;107150;1281;58160;-78
2023/12/19 03:40:20;;;;;;;282.20;43.80;;;;;;;11.78;95.75;101627.50;107149;1282;58429;-78
2023/12/19 03:42:45;;;;;;;287.40;45.20;;;;;;;11.77;95.99;101617.92;107121;1281;58932;-78
2023/12/19 03:45:11;;;;;;;232.40;40.30;;;;;;;11.64;96.71;101616.44;107130;1281;58276;-79
2023/12/19 03:47:38;;;;;;;308.50;44.10;;;;;;;11.93;94.96;101621.96;106771;1282;58364;-79
2023/12/19 03:50:04;;;;;;;264.70;41.50;;;;;;;12.06;94.46;101626.74;107134;1282;58272;-79
2023/12/19 03:52:30;;;;;;;219.50;38.80;;;;;;;12.14;93.43;101626.21;106735;1281;58437;-79
2023/12/19 03:54:56;;;;;;;271.80;41.30;;;;;;;12.24;93.21;101622.50;107092;1282;58223;-80
2023/12/19 03:57:21;;;;;;;285.40;42.90;;;;;;;12.13;93.14;101624.15;107118;1281;58257;-79
2023/12/19 03:59:47;;;;;;;276.10;40.40;;;;;;;12.04;93.38;101625.83;107128;1281;58195;-79
2023/12/19 04:02:13;;;;;;;327.50;43.00;;;;;;;11.99;93.61;101625.03;106790;1282;58353;-79
2023/12/19 04:04:38;;;;;;;294.40;40.80;;;;;;;11.99;95.24;101622.50;106752;1284;58686;-79
2023/12/19 04:07:04;;;;;;;312.60;42.10;;;;;;;11.71;96.98;101611.48;106721;1285;58707;-79
2023/12/19 04:09:30;;;;;;;346.00;42.60;;;;;;;12.02;95.60;101604.34;106536;1285;58388;-79
2023/12/19 04:11:55;;;;;;;249.70;39.60;;;;;;;12.03;95.20;101598.58;106752;1285;60844;-78
2023/12/19 04:14:23;;;;;;;241.90;39.00;;;;;;;12.09;95.20;101594.18;106757;1284;58407;-80
2023/12/19 04:16:49;;;;;;;283.10;40.60;;;;;;;12.05;95.83;101604.45;106760;1284;74128;-80
2023/12/19 04:19:14;;;;;;;259.70;40.70;;;;;;;12.17;94.34;101607.78;106738;1284;58382;-79
2023/12/19 04:21:41;;;;;;;328.90;40.70;;;;;;;12.06;95.19;101605.70;106823;1285;58615;-79
2023/12/19 04:24:07;;;;;;;280.30;40.70;;;;;;;12.22;93.57;101601.59;106764;1284;58290;-78
2023/12/19 04:26:32;;;;;;;261.20;38.20;;;;;;;12.06;92.90;101609.74;106790;1285;58398;-79
2023/12/19 04:28:58;;;;;;;226.10;36.00;;;;;;;12.17;92.42;101615.95;106825;1285;58379;-79
2023/12/19 04:31:23;;;;;;;269.30;37.00;;;;;;;12.19;90.76;101622.02;106534;1284;58588;-78
2023/12/19 04:33:49;;;;;;;216.40;34.10;;;;;;;12.32;90.75;101622.55;106768;1284;58648;-78
2023/12/19 04:36:14;;;;;;;228.90;35.50;;;;;;;12.31;89.89;101627.46;106697;1282;58399;-79
2023/12/19 04:38:40;;;;;;;207.40;34.70;;;;;;;12.27;90.39;101624.32;107111;1282;59106;-79
2023/12/19 04:41:05;;;;;;;178.90;32.70;;;;;;;12.32;90.31;101619.69;106814;1283;58559;-79
2023/12/19 04:43:32;;;;;;;233.40;35.60;;;;;;;11.66;94.97;101620.02;107105;1282;58263;-80
2023/12/19 04:45:57;;;;;;;234.80;36.10;;;;;;;11.92;94.32;101616.45;107002;1283;73831;-79
2023/12/19 04:48:23;;;;;;;188.10;33.10;;;;;;;12.12;91.44;101624.11;107084;1282;59867;-79
2023/12/19 04:50:48;;;;;;;192.20;33.60;;;;;;;11.57;93.96;101637.86;107081;1282;58325;-80
2023/12/19 04:53:14;;;;;;;204.10;33.90;;;;;;;11.54;96.19;101636.98;107160;1282;58301;-79
2023/12/19 04:55:39;;;;;;;188.40;34.00;;;;;;;11.86;93.67;101634.89;107132;1282;58279;-79
2023/12/19 04:58:05;;;;;;;179.40;32.40;;;;;;;12.08;91.85;101644.91;107114;1283;73620;-79
2023/12/19 05:00:30;;;;;;;181.00;33.50;;;;;;;12.12;91.60;101646.21;106785;1286;58321;-79
2023/12/19 05:02:56;;;;;;;189.10;34.00;;;;;;;12.13;91.50;101651.52;107161;1282;58565;-78
2023/12/19 05:05:21;;;;;;;212.20;35.50;;;;;;;12.54;87.87;101650.53;107143;1285;58420;-78
2023/12/19 05:07:47;;;;;;;235.30;38.80;;;;;;;12.35;88.17;101654.19;107166;1282;58268;-78
2023/12/19 05:10:12;;;;;;;252.90;38.50;;;;;;;12.20;91.02;101648.79;106805;1281;72814;-78
2023/12/19 05:12:38;;;;;;;281.80;40.40;;;;;;;12.24;90.48;101657.20;107127;1282;58666;-78
2023/12/19 05:15:04;;;;;;;307.70;42.40;;;;;;;12.07;91.35;101652.63;107152;1281;58336;-79
2023/12/19 05:17:30;;;;;;;341.30;43.60;;;;;;;12.21;91.23;101651.25;107145;1282;58237;-78
2023/12/19 05:19:56;;;;;;;324.80;43.00;;;;;;;12.17;91.55;101653.50;107102;1281;58435;-79
2023/12/19 05:22:22;;;;;;;436.40;47.50;;;;;;;12.11;91.92;101651.99;107161;1282;58233;-79
2023/12/19 05:24:47;;;;;;;372.10;40.60;;;;;;;12.05;92.44;101649.50;107060;1282;61310;-79
2023/12/19 05:27:13;;;;;;;322.80;42.20;;;;;;;11.91;94.34;101655.20;107114;1282;58303;-78
2023/12/19 05:29:38;;;;;;;328.80;42.60;;;;;;;11.73;94.95;101661.11;107029;1283;58358;-79
2023/12/19 05:32:04;;;;;;;314.90;43.80;;;;;;;11.65;96.37;101665.77;107102;1283;58275;-79
2023/12/19 05:34:30;;;;;;;372.20;45.10;;;;;;;11.64;96.47;101668.41;107104;1282;58407;-79
2023/12/19 05:36:56;;;;;;;294.90;43.60;;;;;;;11.72;96.57;101670.36;106834;1283;58326;-79
2023/12/19 05:39:21;;;;;;;278.80;41.70;;;;;;;11.81;96.38;101678.17;106828;1284;71439;-79
2023/12/19 05:41:47;;;;;;;279.90;41.60;;;;;;;12.14;94.11;101682.14;107086;1282;58248;-79
2023/12/19 05:44:13;;;;;;;359.00;46.00;;;;;;;12.26;92.77;101683.11;106790;1282;58518;-79
2023/12/19 05:46:39;;;;;;;278.60;41.00;;;;;;;12.14;94.49;101678.64;107151;1282;58470;-78
2023/12/19 05:49:08;;;;;;;236.70;40.80;;;;;;;12.34;94.09;101680.59;106843;1282;58757;-78
2023/12/19 05:51:38;;;;;;;281.60;43.70;;;;;;;12.35;93.22;101683.77;106986;1282;58529;-79
2023/12/19 05:54:03;;;;;;;276.30;43.00;;;;;;;12.26;93.56;101689.34;107079;1282;73354;-79
2023/12/19 05:56:29;;;;;;;286.10;45.40;;;;;;;12.40;93.73;101690.86;107109;1282;58173;-78
2023/12/19 05:58:56;;;;;;;254.50;42.10;;;;;;;12.64;91.93;101690.66;107154;1282;58257;-79
2023/12/19 06:01:21;;;;;;;256.90;43.30;;;;;;;12.69;91.48;101687.86;106756;1282;59077;-79
2023/12/19 06:03:47;;;;;;;302.10;47.00;;;;;;;12.76;90.62;101680.08;107095;1283;58278;-78
2023/12/19 06:06:16;;;;;;;252.60;48.90;;;;;;;12.88;89.98;101675.17;107004;1283;58397;-79
2023/12/19 06:08:42;;;;;;;343.60;52.10;;;;;;;12.82;89.22;101676.11;107138;1282;58269;-79
2023/12/19 06:11:09;;;;;;;314.10;48.50;;;;;;;12.86;88.83;101679.58;107092;1283;58359;-78
2023/12/19 06:13:34;;;;;;;372.80;51.20;;;;;;;12.86;88.86;101679.05;107118;1283;58286;-80
2023/12/19 06:16:00;;;;;;;331.30;49.80;;;;;;;12.88;89.09;101687.30;107092;1283;58306;-78
2023/12/19 06:18:26;;;;;;;425.60;49.50;;;;;;;12.88;88.60;101684.80;106778;1282;384889;-79
2023/12/19 06:20:52;;;;;;;340.40;48.00;;;;;;;12.91;88.87;101696.21;106799;1281;58216;-79
2023/12/19 06:23:17;;;;;;;556.70;57.50;;;;;;;12.78;88.66;101703.55;107092;1284;58302;-78
2023/12/19 06:25:43;;;;;;;389.30;52.10;;;;;;;12.89;89.23;101709.34;106785;1282;72864;-78
2023/12/19 06:28:09;;;;;;;444.30;55.00;;;;;;;13.06;88.23;101716.69;107087;1282;58248;-78
2023/12/19 06:30:35;;;;;;;467.10;54.70;;;;;;;13.19;87.80;101717.34;106854;1283;59129;-78
2023/12/19 06:36:33;;;;;;;384.80;53.70;;;;;;;13.04;88.30;101715.38;102820;1291;600223;-80
2023/12/19 06:39:00;;;;;;;278.10;50.00;;;;;;;13.15;88.47;101711.53;103030;1293;60397;-77
2023/12/19 06:41:25;;;;;;;276.30;50.10;;;;;;;12.99;90.43;101710.51;102824;1289;60447;-78
2023/12/19 06:43:51;;;;;;;394.00;57.10;;;;;;;13.00;90.86;101710.15;106489;1288;58180;-79
2023/12/19 06:46:17;;;;;;;305.50;55.40;;;;;;;13.01;91.63;101710.75;106425;1289;58096;-79
2023/12/19 06:48:44;;;;;;;298.90;53.30;;;;;;;13.17;90.23;101704.16;106246;1291;58117;-79
2023/12/19 06:51:10;;;;;;;278.00;50.50;;;;;;;13.40;88.00;101702.43;105973;1288;436315;-79
2023/12/19 06:53:35;;;;;;;292.60;52.00;;;;;;;13.34;87.90;101704.46;106492;1288;58131;-78
2023/12/19 06:56:01;;;;;;;290.80;53.00;;;;;;;13.29;88.05;101702.34;106286;1288;58225;-79
2023/12/19 06:58:27;;;;;;;268.10;47.20;;;;;;;13.20;88.17;101697.88;106494;1288;58324;-78
2023/12/19 07:00:53;;;;;;;324.70;49.90;;;;;;;13.33;87.76;101699.95;106424;1288;60816;-78
2023/12/19 07:03:24;;;;;;;282.10;49.10;;;;;;;13.32;87.91;101700.39;106315;1289;58352;-78
2023/12/19 07:05:53;;;;;;;293.60;48.70;;;;;;;13.37;87.70;101693.46;106425;1286;72984;-78
2023/12/19 07:08:18;;;;;;;283.30;46.50;;;;;;;13.34;88.49;101696.30;106703;1285;73315;-78
2023/12/19 07:10:44;;;;;;;371.00;53.80;;;;;;;13.39;88.11;101693.27;106353;1286;58285;-78
2023/12/19 07:13:10;;;;;;;380.80;51.10;;;;;;;13.38;89.11;101692.93;106844;1285;58099;-79
2023/12/19 07:15:36;;;;;;;391.40;55.60;;;;;;;13.27;89.13;101692.45;106688;1286;58154;-79
2023/12/19 07:18:02;;;;;;;363.00;54.20;;;;;;;13.16;89.71;101694.23;106811;1285;58102;-80
2023/12/19 07:20:27;;;;;;;318.10;51.60;;;;;;;13.08;90.54;101695.60;106528;1285;58203;-78
2023/12/19 07:22:53;;;;;;;367.90;52.30;;;;;;;13.17;90.96;101698.73;106777;1285;59897;-79
2023/12/19 07:25:20;;;;;;;440.20;55.60;;;;;;;13.18;91.07;101700.39;106736;1285;58186;-78
2023/12/19 07:27:46;;;;;;;452.60;61.20;;;;;;;13.23;91.48;101703.17;106614;1282;58271;-79
2023/12/19 07:30:12;;;;;;;393.20;59.00;;;;;;;13.29;90.95;101710.73;107092;1282;58204;-80
2023/12/19 07:32:38;;;;;;;445.90;63.80;;;;;;;13.31;91.10;101719.00;107085;1282;58217;-78
2023/12/19 07:35:05;;;;;;;452.10;64.40;;;;;;;13.32;90.92;101717.05;107069;1282;58613;-78
2023/12/19 07:37:31;;;;;;;519.00;70.00;;;;;;;13.45;90.28;101720.54;107096;1282;58098;-78
2023/12/19 07:39:56;;;;;;;656.10;80.90;;;;;;;13.45;90.50;101724.66;107126;1282;58195;-79
2023/12/19 07:42:28;;;;;;;435.00;65.50;;;;;;;13.48;90.07;101724.52;107114;1282;58076;-79
2023/12/19 07:44:56;;;;;;;566.80;73.50;;;;;;;13.46;91.43;101722.66;106630;1282;73386;-79
2023/12/19 07:47:22;;;;;;;452.90;68.60;;;;;;;13.50;91.19;101724.11;107068;1282;60413;-79
2023/12/19 07:49:50;;;;;;;483.30;74.80;;;;;;;13.35;90.39;101730.25;106787;1282;58211;-79
2023/12/19 07:52:19;;;;;;;561.70;81.50;;;;;;;13.19;90.92;101728.33;106890;1282;73424;-79
2023/12/19 07:54:47;;;;;;;468.50;70.60;;;;;;;13.18;92.12;101726.10;107053;1282;75839;-79
2023/12/19 07:57:19;;;;;;;472.10;74.10;;;;;;;13.37;91.76;101724.38;106765;1282;73508;-79
2023/12/19 07:59:49;;;;;;;483.40;79.80;;;;;;;13.36;92.08;101720.04;107019;1283;59682;-81
2023/12/19 08:02:15;;;;;;;568.80;84.20;;;;;;;13.38;92.32;101716.06;107108;1282;59864;-81
2023/12/19 08:04:44;;;;;;;710.80;96.80;;;;;;;13.35;92.04;101717.36;107053;1282;58059;-81
2023/12/19 08:07:10;;;;;;;608.10;91.90;;;;;;;13.45;91.50;101721.45;107040;1282;75304;-80
2023/12/19 08:09:35;;;;;;;615.00;93.80;;;;;;;13.53;91.00;101719.98;106964;1282;58068;-81
2023/12/19 08:12:01;;;;;;;570.50;93.10;;;;;;;13.60;90.90;101715.04;107133;1282;58198;-81
2023/12/19 08:14:27;;;;;;;489.80;89.60;;;;;;;13.67;90.52;101710.18;107070;1282;58007;-79
2023/12/19 08:16:53;;;;;;;616.60;96.30;;;;;;;13.68;90.94;101706.62;107075;1282;58163;-79
2023/12/19 08:19:19;;;;;;;649.60;98.10;;;;;;;13.62;91.20;101709.16;106916;1282;58074;-80
2023/12/19 08:21:56;;;;;;;544.60;95.20;;;;;;;13.55;91.31;101707.45;106898;1282;58725;-78
2023/12/19 08:24:21;;;;;;;535.10;93.70;;;;;;;13.59;91.53;101711.77;106987;1282;59940;-79
2023/12/19 08:26:50;;;;;;;482.90;90.20;;;;;;;13.59;91.27;101711.45;106843;1285;58284;-79
2023/12/19 08:29:17;;;;;;;482.40;88.90;;;;;;;13.69;90.99;101712.05;106567;1288;73495;-79
2023/12/19 08:31:48;;;;;;;411.80;84.20;;;;;;;13.65;90.51;101708.48;106186;1291;58183;-78
2023/12/19 08:34:18;;;;;;;462.90;83.60;;;;;;;13.52;91.55;101700.91;106066;1291;61003;-79
2023/12/19 08:36:44;;;;;;;394.50;76.00;;;;;;;13.49;91.75;101698.70;106091;1291;60322;-79
2023/12/19 08:39:10;;;;;;;398.50;78.10;;;;;;;13.42;92.55;101696.28;106223;1291;58196;-81
2023/12/19 08:41:40;;;;;;;455.00;80.80;;;;;;;13.51;93.12;101691.25;106122;1291;58327;-78
2023/12/19 08:44:11;;;;;;;405.50;77.90;;;;;;;13.68;93.14;101688.84;106201;1291;73754;-79
2023/12/19 08:46:43;;;;;;;383.10;75.90;;;;;;;13.62;92.66;101690.63;106160;1290;61063;-78
2023/12/19 08:49:14;;;;;;;381.40;73.50;;;;;;;13.48;94.01;101689.65;106144;1291;60157;-79
2023/12/19 08:52:01;;;;;;;341.80;73.40;;;;;;;13.40;94.69;101678.89;106143;1291;71776;-78
2023/12/19 08:54:28;;;;;;;346.30;71.00;;;;;;;13.49;94.22;101667.88;106261;1290;73714;-79
2023/12/19 08:57:05;;;;;;;348.60;73.50;;;;;;;13.61;93.80;101656.33;106183;1291;58456;-79
2023/12/19 08:59:31;;;;;;;331.70;74.20;;;;;;;13.60;92.11;101640.02;106215;1289;60966;-79
2023/12/19 09:01:57;;;;;;;311.50;71.80;;;;;;;13.58;92.40;101639.07;106412;1289;58158;-79
2023/12/19 09:04:24;;;;;;;321.20;73.70;;;;;;;13.56;93.11;101637.96;106547;1285;58388;-79
2023/12/19 09:06:49;;;;;;;334.20;73.50;;;;;;;13.56;93.36;101625.65;106787;1282;58113;-79
2023/12/19 09:09:15;;;;;;;307.90;69.70;;;;;;;13.57;93.21;101617.98;107076;1282;58171;-79
2023/12/19 09:11:41;;;;;;;311.20;68.50;;;;;;;13.50;93.50;101612.27;106984;1282;58175;-79
2023/12/19 09:14:08;;;;;;;326.50;70.30;;;;;;;13.47;95.03;101615.70;107065;1285;57937;-79
2023/12/19 09:16:34;;;;;;;313.40;67.90;;;;;;;13.58;94.49;101617.61;107052;1282;58019;-79
2023/12/19 09:19:00;;;;;;;288.20;67.00;;;;;;;13.76;92.84;101622.57;107097;1282;58319;-79
2023/12/19 09:21:29;;;;;;;289.00;68.20;;;;;;;13.86;90.63;101628.52;107085;1282;58350;-79
2023/12/19 09:23:54;;;;;;;293.20;70.10;;;;;;;13.75;90.69;101626.94;106739;1283;58205;-78
2023/12/19 09:26:20;;;;;;;283.20;67.90;;;;;;;13.60;92.41;101622.73;107098;1282;58155;-78
2023/12/19 09:28:49;;;;;;;286.00;66.50;;;;;;;13.58;94.18;101619.73;107091;1282;58153;-78
2023/12/19 09:31:17;;;;;;;280.80;66.90;;;;;;;13.61;94.83;101614.89;106577;1285;58218;-78
2023/12/19 09:33:43;;;;;;;313.90;72.00;;;;;;;13.81;94.60;101614.38;106442;1288;71806;-78
2023/12/19 09:36:09;;;;;;;285.50;68.40;;;;;;;13.54;95.90;101617.25;106802;1285;58174;-79
2023/12/19 09:38:38;;;;;;;265.20;65.70;;;;;;;13.73;94.97;101608.06;106822;1285;59058;-79
2023/12/19 09:41:04;;;;;;;287.60;67.70;;;;;;;13.78;95.02;101609.59;106468;1285;72937;-79
2023/12/19 09:43:33;;;;;;;278.30;64.00;;;;;;;13.58;97.59;101605.27;106699;1286;58213;-79
2023/12/19 09:46:02;;;;;;;226.90;59.70;;;;;;;13.52;98.12;101597.17;106490;1285;73284;-77
2023/12/19 09:48:33;;;;;;;238.40;56.60;;;;;;;13.46;98.24;101592.84;106660;1285;60963;-77
2023/12/19 09:51:02;;;;;;;218.30;53.40;;;;;;;13.49;99.03;101585.61;106817;1285;61142;-78
2023/12/19 09:53:31;;;;;;;166.80;44.20;;;;;;;13.47;98.46;101581.75;106469;1285;73995;-78
2023/12/19 09:55:57;;;;;;;179.80;45.70;;;;;;;13.56;97.24;101577.52;106699;1286;74332;-78
2023/12/19 09:58:25;;;;;;;171.90;43.20;;;;;;;13.59;98.43;101571.80;106687;1286;58105;-78
2023/12/19 10:00:52;;;;;;;146.20;39.50;;;;;;;13.81;98.09;101568.48;106671;1286;61834;-78
2023/12/19 10:03:18;;;;;;;125.10;36.50;;;;;;;13.84;97.47;101567.70;107030;1282;58856;-78
2023/12/19 10:05:44;;;;;;;136.10;37.40;;;;;;;13.90;96.54;101564.82;107064;1282;58272;-78
2023/12/19 10:08:10;;;;;;;124.80;36.40;;;;;;;13.88;96.26;101556.35;107071;1283;58217;-78
2023/12/19 10:10:53;;;;;;;128.30;37.20;;;;;;;13.86;96.16;101553.73;107056;1282;58118;-78
2023/12/19 10:13:33;;;;;;;123.20;36.20;;;;;;;13.81;95.59;101552.17;107069;1282;61023;-79
2023/12/19 10:16:03;;;;;;;122.00;36.30;;;;;;;13.82;96.23;101547.63;106768;1282;60974;-77
2023/12/19 10:18:29;;;;;;;111.40;32.20;;;;;;;13.88;95.91;101546.17;106701;1283;73114;-79
2023/12/19 10:21:22;;;;;;;128.20;37.00;;;;;;;13.90;95.80;101553.33;107080;1282;58140;-79
2023/12/19 10:23:47;;;;;;;128.70;36.40;;;;;;;13.92;95.43;101553.83;106339;1289;73642;-78
2023/12/19 10:26:13;;;;;;;127.30;36.90;;;;;;;13.86;95.86;101554.06;106434;1289;58235;-79
2023/12/19 10:28:40;;;;;;;114.60;35.90;;;;;;;13.93;95.51;101544.64;106269;1290;58427;-78
2023/12/19 10:31:05;;;;;;;117.20;37.10;;;;;;;13.82;95.72;101541.83;106371;1290;58190;-77
2023/12/19 10:33:54;;;;;;;137.50;40.70;;;;;;;13.82;96.81;101538.64;106374;1289;58281;-78
2023/12/19 10:36:30;;;;;;;131.40;38.50;;;;;;;13.92;96.65;101537.41;106364;1289;73636;-79
2023/12/19 10:39:00;;;;;;;139.90;39.50;;;;;;;14.08;96.21;101539.77;106359;1289;61454;-78
2023/12/19 10:41:30;;;;;;;112.70;36.60;;;;;;;14.07;96.45;101538.28;106368;1289;60025;-78
2023/12/19 10:43:57;;;;;;;116.90;37.30;;;;;;;14.03;95.44;101543.63;106389;1289;74888;-78
2023/12/19 10:46:33;;;;;;;120.90;38.30;;;;;;;13.86;94.91;101543.38;106112;1292;72705;-78
2023/12/19 10:49:03;;;;;;;115.20;35.90;;;;;;;13.82;95.24;101538.20;106356;1289;73843;-79
2023/12/19 10:51:29;;;;;;;111.90;35.30;;;;;;;14.05;95.41;101531.55;106332;1289;61307;-79
2023/12/19 10:54:04;;;;;;;103.90;34.10;;;;;;;14.08;95.29;101527.95;106259;1289;58469;-79
2023/12/19 10:56:37;;;;;;;100.10;33.20;;;;;;;14.11;95.45;101520.96;106363;1289;73590;-79